sensor_id;sensor_type;location;lat;lon;timestamp;pressure;altitude;pressure_sealevel;temperature;humidity
59194;BME280;44967;48.598;15.650;2023-04-24T00:00:04;97154.06;;;9.62;81.79
59194;BME280;44967;48.598;15.650;2023-04-24T00:02:35;97154.28;;;9.76;82.21
59194;BME280;44967;48.598;15.650;2023-04-24T00:05:07;97147.13;;;9.79;81.89
59194;BME280;44967;48.598;15.650;2023-04-24T00:07:34;97146.13;;;9.82;81.32
59194;BME280;44967;48.598;15.650;2023-04-24T00:09:59;97146.38;;;9.76;82.13
59194;BME280;44967;48.598;15.650;2023-04-24T00:12:26;97146.88;;;9.84;82.55
59194;BME280;44967;48.598;15.650;2023-04-24T00:14:52;97147.47;;;9.90;82.13
59194;BME280;44967;48.598;15.650;2023-04-24T00:17:18;97143.41;;;9.83;81.44
59194;BME280;44967;48.598;15.650;2023-04-24T00:19:48;97149.53;;;9.84;80.89
59194;BME280;44967;48.598;15.650;2023-04-24T00:22:15;97147.31;;;9.75;81.16
59194;BME280;44967;48.598;15.650;2023-04-24T00:24:41;97144.19;;;9.67;81.96
59194;BME280;44967;48.598;15.650;2023-04-24T00:27:07;97148.66;;;9.65;81.88
59194;BME280;44967;48.598;15.650;2023-04-24T00:29:33;97146.88;;;9.65;81.18
59194;BME280;44967;48.598;15.650;2023-04-24T00:31:59;97143.16;;;9.51;80.63
59194;BME280;44967;48.598;15.650;2023-04-24T00:34:24;97135.97;;;9.54;82.19
59194;BME280;44967;48.598;15.650;2023-04-24T00:36:50;97138.53;;;9.56;81.82
59194;BME280;44967;48.598;15.650;2023-04-24T00:39:20;97144.22;;;9.46;80.89
59194;BME280;44967;48.598;15.650;2023-04-24T00:41:47;97149.88;;;9.37;81.44
59194;BME280;44967;48.598;15.650;2023-04-24T00:44:14;97149.88;;;9.37;81.35
59194;BME280;44967;48.598;15.650;2023-04-24T00:46:40;97148.44;;;9.30;81.44
59194;BME280;44967;48.598;15.650;2023-04-24T00:49:06;97147.72;;;9.27;82.15
59194;BME280;44967;48.598;15.650;2023-04-24T00:51:33;97155.44;;;9.31;82.73
59194;BME280;44967;48.598;15.650;2023-04-24T00:54:00;97158.00;;;9.33;82.53
59194;BME280;44967;48.598;15.650;2023-04-24T00:56:27;97160.06;;;9.26;83.20
59194;BME280;44967;48.598;15.650;2023-04-24T00:58:53;97149.31;;;9.31;82.68
59194;BME280;44967;48.598;15.650;2023-04-24T01:01:20;97136.31;;;9.26;82.70
59194;BME280;44967;48.598;15.650;2023-04-24T01:03:47;97146.88;;;9.26;83.11
59194;BME280;44967;48.598;15.650;2023-04-24T01:06:15;97145.88;;;9.29;82.59
59194;BME280;44967;48.598;15.650;2023-04-24T01:08:41;97144.91;;;9.31;82.21
59194;BME280;44967;48.598;15.650;2023-04-24T01:11:07;97145.75;;;9.32;81.87
59194;BME280;44967;48.598;15.650;2023-04-24T01:13:33;97164.13;;;9.13;81.97
59194;BME280;44967;48.598;15.650;2023-04-24T01:16:00;97168.75;;;9.08;82.42
59194;BME280;44967;48.598;15.650;2023-04-24T01:18:26;97148.72;;;9.04;82.31
59194;BME280;44967;48.598;15.650;2023-04-24T01:20:57;97145.69;;;9.13;82.55
59194;BME280;44967;48.598;15.650;2023-04-24T01:23:23;97153.91;;;9.06;82.37
59194;BME280;44967;48.598;15.650;2023-04-24T01:25:49;97140.88;;;9.03;82.17
59194;BME280;44967;48.598;15.650;2023-04-24T01:28:16;97149.50;;;9.06;82.38
59194;BME280;44967;48.598;15.650;2023-04-24T01:30:42;97159.47;;;8.99;81.60
59194;BME280;44967;48.598;15.650;2023-04-24T01:33:10;97147.91;;;8.82;83.53
59194;BME280;44967;48.598;15.650;2023-04-24T01:35:36;97144.63;;;8.97;83.50
59194;BME280;44967;48.598;15.650;2023-04-24T01:38:03;97144.63;;;8.97;83.39
59194;BME280;44967;48.598;15.650;2023-04-24T01:40:28;97150.88;;;8.94;82.76
59194;BME280;44967;48.598;15.650;2023-04-24T01:42:54;97155.94;;;8.79;83.37
59194;BME280;44967;48.598;15.650;2023-04-24T01:45:20;97156.47;;;8.87;82.73
59194;BME280;44967;48.598;15.650;2023-04-24T01:47:46;97145.28;;;8.82;83.68
59194;BME280;44967;48.598;15.650;2023-04-24T01:50:12;97137.75;;;8.93;82.93
59194;BME280;44967;48.598;15.650;2023-04-24T01:52:38;97138.03;;;8.87;82.81
59194;BME280;44967;48.598;15.650;2023-04-24T01:55:05;97141.44;;;8.89;82.41
59194;BME280;44967;48.598;15.650;2023-04-24T01:57:33;97143.44;;;8.84;82.44
59194;BME280;44967;48.598;15.650;2023-04-24T01:59:59;97144.09;;;8.89;82.55
59194;BME280;44967;48.598;15.650;2023-04-24T02:02:25;97146.66;;;8.90;83.07
59194;BME280;44967;48.598;15.650;2023-04-24T02:04:53;97138.38;;;8.99;83.05
59194;BME280;44967;48.598;15.650;2023-04-24T02:07:19;97128.94;;;8.94;82.07
59194;BME280;44967;48.598;15.650;2023-04-24T02:09:45;97132.84;;;9.06;82.78
59194;BME280;44967;48.598;15.650;2023-04-24T02:12:11;97125.97;;;9.02;82.34
59194;BME280;44967;48.598;15.650;2023-04-24T02:14:37;97121.00;;;8.95;82.31
59194;BME280;44967;48.598;15.650;2023-04-24T02:17:02;97111.13;;;8.80;82.04
59194;BME280;44967;48.598;15.650;2023-04-24T02:19:28;97111.44;;;8.73;83.59
59194;BME280;44967;48.598;15.650;2023-04-24T02:21:54;97115.44;;;8.61;83.11
59194;BME280;44967;48.598;15.650;2023-04-24T02:24:19;97117.84;;;8.66;83.25
59194;BME280;44967;48.598;15.650;2023-04-24T02:26:45;97104.16;;;8.58;84.36
59194;BME280;44967;48.598;15.650;2023-04-24T02:29:11;97110.19;;;8.61;83.84
59194;BME280;44967;48.598;15.650;2023-04-24T02:31:36;97104.56;;;8.48;83.62
59194;BME280;44967;48.598;15.650;2023-04-24T02:34:02;97107.25;;;8.47;83.74
59194;BME280;44967;48.598;15.650;2023-04-24T02:36:28;97112.31;;;8.51;84.50
59194;BME280;44967;48.598;15.650;2023-04-24T02:38:53;97108.59;;;8.57;84.21
59194;BME280;44967;48.598;15.650;2023-04-24T02:41:20;97113.09;;;8.53;83.60
59194;BME280;44967;48.598;15.650;2023-04-24T02:43:45;97114.03;;;8.52;83.13
59194;BME280;44967;48.598;15.650;2023-04-24T02:46:11;97112.38;;;8.50;83.08
59194;BME280;44967;48.598;15.650;2023-04-24T02:48:37;97109.81;;;8.48;83.26
59194;BME280;44967;48.598;15.650;2023-04-24T02:51:03;97110.91;;;8.43;83.38
59194;BME280;44967;48.598;15.650;2023-04-24T02:53:29;97113.00;;;8.35;82.83
59194;BME280;44967;48.598;15.650;2023-04-24T02:55:56;97109.75;;;8.28;82.71
59194;BME280;44967;48.598;15.650;2023-04-24T02:58:22;97111.28;;;8.34;83.60
59194;BME280;44967;48.598;15.650;2023-04-24T03:00:48;97100.44;;;8.41;83.55
59194;BME280;44967;48.598;15.650;2023-04-24T03:03:14;97110.88;;;8.44;83.59
59194;BME280;44967;48.598;15.650;2023-04-24T03:05:40;97109.91;;;8.45;82.82
59194;BME280;44967;48.598;15.650;2023-04-24T03:08:06;97101.56;;;8.36;83.83
59194;BME280;44967;48.598;15.650;2023-04-24T03:10:31;97097.94;;;8.38;83.53
59194;BME280;44967;48.598;15.650;2023-04-24T03:12:57;97107.00;;;8.31;82.87
59194;BME280;44967;48.598;15.650;2023-04-24T03:15:23;97102.34;;;8.16;83.73
59194;BME280;44967;48.598;15.650;2023-04-24T03:17:49;97092.97;;;8.09;83.98
59194;BME280;44967;48.598;15.650;2023-04-24T03:20:14;97097.19;;;8.13;84.00
59194;BME280;44967;48.598;15.650;2023-04-24T03:22:40;97093.28;;;8.23;83.94
59194;BME280;44967;48.598;15.650;2023-04-24T03:25:06;97090.59;;;8.25;83.58
59194;BME280;44967;48.598;15.650;2023-04-24T03:27:35;97078.22;;;8.27;84.11
59194;BME280;44967;48.598;15.650;2023-04-24T03:30:01;97081.38;;;8.36;83.46
59194;BME280;44967;48.598;15.650;2023-04-24T03:32:27;97080.31;;;8.40;84.09
59194;BME280;44967;48.598;15.650;2023-04-24T03:34:53;97075.50;;;8.50;83.86
59194;BME280;44967;48.598;15.650;2023-04-24T03:37:18;97072.81;;;8.51;83.56
59194;BME280;44967;48.598;15.650;2023-04-24T03:39:44;97080.66;;;8.73;84.20
59194;BME280;44967;48.598;15.650;2023-04-24T03:42:10;97070.59;;;8.83;84.33
59194;BME280;44967;48.598;15.650;2023-04-24T03:44:36;97078.38;;;8.86;84.39
59194;BME280;44967;48.598;15.650;2023-04-24T03:47:02;97077.06;;;8.96;84.42
59194;BME280;44967;48.598;15.650;2023-04-24T03:49:28;97073.59;;;9.14;83.52
59194;BME280;44967;48.598;15.650;2023-04-24T03:51:54;97077.81;;;9.18;83.60
59194;BME280;44967;48.598;15.650;2023-04-24T03:54:19;97071.34;;;9.25;82.96
59194;BME280;44967;48.598;15.650;2023-04-24T03:56:45;97076.22;;;9.34;83.13
59194;BME280;44967;48.598;15.650;2023-04-24T03:59:11;97076.25;;;9.33;82.44
59194;BME280;44967;48.598;15.650;2023-04-24T04:01:38;97076.97;;;9.36;82.56
59194;BME280;44967;48.598;15.650;2023-04-24T04:04:05;97081.19;;;9.40;83.11
59194;BME280;44967;48.598;15.650;2023-04-24T04:06:31;97080.56;;;9.54;82.73
59194;BME280;44967;48.598;15.650;2023-04-24T04:08:58;97088.44;;;9.56;82.84
59194;BME280;44967;48.598;15.650;2023-04-24T04:11:24;97083.38;;;9.51;82.43
59194;BME280;44967;48.598;15.650;2023-04-24T04:13:50;97102.19;;;9.62;81.88
59194;BME280;44967;48.598;15.650;2023-04-24T04:16:15;97105.53;;;9.66;82.17
59194;BME280;44967;48.598;15.650;2023-04-24T04:18:44;97104.88;;;9.61;81.19
59194;BME280;44967;48.598;15.650;2023-04-24T04:21:10;97104.81;;;9.62;81.75
59194;BME280;44967;48.598;15.650;2023-04-24T04:23:36;97110.88;;;9.64;81.33
59194;BME280;44967;48.598;15.650;2023-04-24T04:26:05;97118.31;;;9.75;81.66
59194;BME280;44967;48.598;15.650;2023-04-24T04:28:31;97122.78;;;9.73;81.58
59194;BME280;44967;48.598;15.650;2023-04-24T04:30:57;97121.56;;;9.80;81.11
59194;BME280;44967;48.598;15.650;2023-04-24T04:33:27;97126.03;;;9.79;80.81
59194;BME280;44967;48.598;15.650;2023-04-24T04:35:52;97127.78;;;9.79;80.74
59194;BME280;44967;48.598;15.650;2023-04-24T04:38:19;97126.06;;;9.78;81.05
59194;BME280;44967;48.598;15.650;2023-04-24T04:40:45;97131.63;;;9.72;81.36
59194;BME280;44967;48.598;15.650;2023-04-24T04:43:11;97128.72;;;9.78;81.35
59194;BME280;44967;48.598;15.650;2023-04-24T04:45:39;97134.84;;;9.78;81.03
59194;BME280;44967;48.598;15.650;2023-04-24T04:48:07;97133.56;;;9.87;80.88
59194;BME280;44967;48.598;15.650;2023-04-24T04:50:38;97135.25;;;9.88;81.65
59194;BME280;44967;48.598;15.650;2023-04-24T04:53:04;97126.94;;;9.97;81.38
59194;BME280;44967;48.598;15.650;2023-04-24T04:55:31;97134.78;;;9.99;81.54
59194;BME280;44967;48.598;15.650;2023-04-24T04:57:56;97139.50;;;10.11;81.51
59194;BME280;44967;48.598;15.650;2023-04-24T05:00:22;97135.34;;;10.24;80.97
59194;BME280;44967;48.598;15.650;2023-04-24T05:02:51;97133.44;;;10.27;80.72
59194;BME280;44967;48.598;15.650;2023-04-24T05:05:17;97135.72;;;10.35;80.87
59194;BME280;44967;48.598;15.650;2023-04-24T05:07:43;97141.47;;;10.43;80.68
59194;BME280;44967;48.598;15.650;2023-04-24T05:10:09;97135.53;;;10.57;80.15
59194;BME280;44967;48.598;15.650;2023-04-24T05:12:35;97142.84;;;10.69;79.67
59194;BME280;44967;48.598;15.650;2023-04-24T05:15:00;97145.50;;;10.69;79.56
59194;BME280;44967;48.598;15.650;2023-04-24T05:17:27;97144.34;;;10.74;79.33
59194;BME280;44967;48.598;15.650;2023-04-24T05:19:52;97153.25;;;10.72;79.76
59194;BME280;44967;48.598;15.650;2023-04-24T05:22:18;97162.97;;;10.71;79.39
59194;BME280;44967;48.598;15.650;2023-04-24T05:24:46;97165.31;;;10.77;78.90
59194;BME280;44967;48.598;15.650;2023-04-24T05:27:12;97159.88;;;10.80;78.72
59194;BME280;44967;48.598;15.650;2023-04-24T05:29:38;97159.88;;;10.80;78.66
59194;BME280;44967;48.598;15.650;2023-04-24T05:32:04;97161.44;;;10.84;79.01
59194;BME280;44967;48.598;15.650;2023-04-24T05:34:29;97163.00;;;10.88;78.35
59194;BME280;44967;48.598;15.650;2023-04-24T05:36:55;97162.78;;;10.93;78.88
59194;BME280;44967;48.598;15.650;2023-04-24T05:39:21;97164.50;;;10.94;78.70
59194;BME280;44967;48.598;15.650;2023-04-24T05:41:47;97163.63;;;10.94;78.75
59194;BME280;44967;48.598;15.650;2023-04-24T05:44:12;97164.72;;;11.07;77.97
59194;BME280;44967;48.598;15.650;2023-04-24T05:46:38;97160.38;;;11.06;77.79
59194;BME280;44967;48.598;15.650;2023-04-24T05:49:04;97161.69;;;11.14;78.12
59194;BME280;44967;48.598;15.650;2023-04-24T05:51:29;97165.88;;;11.18;77.72
59194;BME280;44967;48.598;15.650;2023-04-24T05:53:57;97164.56;;;11.27;77.77
59194;BME280;44967;48.598;15.650;2023-04-24T05:56:23;97168.53;;;11.35;76.73
59194;BME280;44967;48.598;15.650;2023-04-24T05:58:49;97169.56;;;11.33;77.60
59194;BME280;44967;48.598;15.650;2023-04-24T06:01:14;97170.53;;;11.48;77.37
59194;BME280;44967;48.598;15.650;2023-04-24T06:03:41;97175.50;;;11.54;77.04
59194;BME280;44967;48.598;15.650;2023-04-24T06:06:07;97178.78;;;11.59;76.94
59194;BME280;44967;48.598;15.650;2023-04-24T06:08:35;97173.75;;;11.70;76.94
59194;BME280;44967;48.598;15.650;2023-04-24T06:11:01;97170.25;;;11.69;76.77
59194;BME280;44967;48.598;15.650;2023-04-24T06:13:26;97170.66;;;11.79;76.44
59194;BME280;44967;48.598;15.650;2023-04-24T06:15:52;97174.84;;;11.83;77.20
59194;BME280;44967;48.598;15.650;2023-04-24T06:18:18;97181.69;;;11.87;77.30
59194;BME280;44967;48.598;15.650;2023-04-24T06:20:45;97179.34;;;11.98;76.22
59194;BME280;44967;48.598;15.650;2023-04-24T06:23:10;97178.72;;;11.93;76.32
59194;BME280;44967;48.598;15.650;2023-04-24T06:25:36;97175.66;;;11.85;76.57
59194;BME280;44967;48.598;15.650;2023-04-24T06:28:03;97181.22;;;11.96;76.11
59194;BME280;44967;48.598;15.650;2023-04-24T06:30:28;97175.13;;;11.94;75.75
59194;BME280;44967;48.598;15.650;2023-04-24T06:32:54;97178.34;;;12.01;75.82
59194;BME280;44967;48.598;15.650;2023-04-24T06:35:20;97179.25;;;12.00;75.82
59194;BME280;44967;48.598;15.650;2023-04-24T06:37:46;97183.97;;;12.10;75.19
59194;BME280;44967;48.598;15.650;2023-04-24T06:40:11;97178.66;;;12.10;75.22
59194;BME280;44967;48.598;15.650;2023-04-24T06:42:37;97183.97;;;12.10;74.85
59194;BME280;44967;48.598;15.650;2023-04-24T06:45:03;97170.78;;;12.09;75.21
59194;BME280;44967;48.598;15.650;2023-04-24T06:47:29;97182.09;;;12.12;74.17
59194;BME280;44967;48.598;15.650;2023-04-24T06:49:55;97176.50;;;12.01;74.55
59194;BME280;44967;48.598;15.650;2023-04-24T06:52:21;97181.56;;;12.06;75.07
59194;BME280;44967;48.598;15.650;2023-04-24T06:54:46;97170.22;;;12.04;74.34
59194;BME280;44967;48.598;15.650;2023-04-24T06:57:12;97170.31;;;12.18;73.60
59194;BME280;44967;48.598;15.650;2023-04-24T06:59:38;97178.59;;;12.12;74.05
59194;BME280;44967;48.598;15.650;2023-04-24T07:02:04;97177.31;;;12.03;74.78
59194;BME280;44967;48.598;15.650;2023-04-24T07:04:30;97174.06;;;12.29;75.62
59194;BME280;44967;48.598;15.650;2023-04-24T07:06:56;97182.13;;;12.44;74.48
59194;BME280;44967;48.598;15.650;2023-04-24T07:09:24;97181.59;;;12.37;73.02
59194;BME280;44967;48.598;15.650;2023-04-24T07:11:51;97185.44;;;12.63;74.34
59194;BME280;44967;48.598;15.650;2023-04-24T07:14:17;97178.88;;;12.39;72.43
59194;BME280;44967;48.598;15.650;2023-04-24T07:16:43;97183.56;;;12.34;73.10
59194;BME280;44967;48.598;15.650;2023-04-24T07:19:09;97185.72;;;12.43;74.04
59194;BME280;44967;48.598;15.650;2023-04-24T07:21:35;97193.59;;;12.60;73.14
59194;BME280;44967;48.598;15.650;2023-04-24T07:24:01;97192.91;;;12.72;73.09
59194;BME280;44967;48.598;15.650;2023-04-24T07:26:30;97189.41;;;12.56;72.51
59194;BME280;44967;48.598;15.650;2023-04-24T07:28:57;97200.38;;;12.33;72.93
59194;BME280;44967;48.598;15.650;2023-04-24T07:31:23;97196.06;;;12.32;73.28
59194;BME280;44967;48.598;15.650;2023-04-24T07:33:48;97199.38;;;12.19;73.42
59194;BME280;44967;48.598;15.650;2023-04-24T07:36:15;97198.75;;;12.14;73.75
59194;BME280;44967;48.598;15.650;2023-04-24T07:38:47;97203.81;;;12.19;74.07
59194;BME280;44967;48.598;15.650;2023-04-24T07:41:13;97202.75;;;12.06;74.38
59194;BME280;44967;48.598;15.650;2023-04-24T07:43:39;97199.13;;;11.91;74.60
59194;BME280;44967;48.598;15.650;2023-04-24T07:46:06;97195.22;;;11.98;74.72
59194;BME280;44967;48.598;15.650;2023-04-24T07:48:32;97200.69;;;11.95;74.46
59194;BME280;44967;48.598;15.650;2023-04-24T07:50:57;97193.34;;;12.00;75.17
59194;BME280;44967;48.598;15.650;2023-04-24T07:53:23;97197.97;;;11.97;75.11
59194;BME280;44967;48.598;15.650;2023-04-24T07:55:49;97202.00;;;12.04;75.39
59194;BME280;44967;48.598;15.650;2023-04-24T07:58:14;97195.38;;;11.95;76.03
59194;BME280;44967;48.598;15.650;2023-04-24T08:00:40;97192.97;;;11.91;76.67
59194;BME280;44967;48.598;15.650;2023-04-24T08:03:06;97205.97;;;11.95;76.74
59194;BME280;44967;48.598;15.650;2023-04-24T08:05:32;97195.56;;;11.92;77.14
59194;BME280;44967;48.598;15.650;2023-04-24T08:07:58;97193.16;;;11.88;77.35
59194;BME280;44967;48.598;15.650;2023-04-24T08:10:24;97195.31;;;11.97;77.18
59194;BME280;44967;48.598;15.650;2023-04-24T08:12:50;97193.66;;;11.94;77.36
59194;BME280;44967;48.598;15.650;2023-04-24T08:15:16;97196.16;;;11.97;77.62
59194;BME280;44967;48.598;15.650;2023-04-24T08:17:42;97194.72;;;12.07;76.00
59194;BME280;44967;48.598;15.650;2023-04-24T08:20:09;97200.66;;;12.12;76.17
59194;BME280;44967;48.598;15.650;2023-04-24T08:22:39;97196.91;;;12.16;75.53
59194;BME280;44967;48.598;15.650;2023-04-24T08:25:06;97195.50;;;12.25;75.95
59194;BME280;44967;48.598;15.650;2023-04-24T08:27:32;97197.41;;;12.23;75.94
59194;BME280;44967;48.598;15.650;2023-04-24T08:29:57;97202.28;;;12.31;76.08
59194;BME280;44967;48.598;15.650;2023-04-24T08:32:24;97199.72;;;12.45;75.36
59194;BME280;44967;48.598;15.650;2023-04-24T08:34:49;97195.81;;;12.52;74.42
59194;BME280;44967;48.598;15.650;2023-04-24T08:37:15;97201.34;;;12.47;74.83
59194;BME280;44967;48.598;15.650;2023-04-24T08:39:41;97202.28;;;12.46;74.44
59194;BME280;44967;48.598;15.650;2023-04-24T08:42:06;97208.94;;;12.53;74.22
59194;BME280;44967;48.598;15.650;2023-04-24T08:44:34;97214.59;;;12.47;74.01
59194;BME280;44967;48.598;15.650;2023-04-24T08:47:04;97215.59;;;12.45;73.90
59194;BME280;44967;48.598;15.650;2023-04-24T08:49:30;97220.75;;;12.48;73.47
59194;BME280;44967;48.598;15.650;2023-04-24T08:51:56;97223.22;;;12.35;74.54
59194;BME280;44967;48.598;15.650;2023-04-24T08:54:22;97222.97;;;12.40;73.97
59194;BME280;44967;48.598;15.650;2023-04-24T08:56:48;97223.72;;;12.42;73.90
59194;BME280;44967;48.598;15.650;2023-04-24T08:59:15;97217.06;;;12.35;73.20
59194;BME280;44967;48.598;15.650;2023-04-24T09:01:41;97219.72;;;12.35;72.99
59194;BME280;44967;48.598;15.650;2023-04-24T09:04:09;97228.16;;;12.41;73.70
59194;BME280;44967;48.598;15.650;2023-04-24T09:06:38;97237.47;;;12.33;72.80
59194;BME280;44967;48.598;15.650;2023-04-24T09:09:04;97233.47;;;12.41;73.15
59194;BME280;44967;48.598;15.650;2023-04-24T09:11:31;97226.56;;;12.39;73.09
59194;BME280;44967;48.598;15.650;2023-04-24T09:13:58;97233.22;;;12.46;72.84
59194;BME280;44967;48.598;15.650;2023-04-24T09:16:25;97229.41;;;12.51;73.07
59194;BME280;44967;48.598;15.650;2023-04-24T09:18:51;97237.59;;;12.47;72.74
59194;BME280;44967;48.598;15.650;2023-04-24T09:21:17;97232.91;;;12.52;73.04
59194;BME280;44967;48.598;15.650;2023-04-24T09:23:43;97236.06;;;12.43;73.21
59194;BME280;44967;48.598;15.650;2023-04-24T09:26:09;97228.34;;;12.54;72.89
59194;BME280;44967;48.598;15.650;2023-04-24T09:28:38;97246.56;;;12.44;73.83
59194;BME280;44967;48.598;15.650;2023-04-24T09:31:12;97250.91;;;12.45;73.42
59194;BME280;44967;48.598;15.650;2023-04-24T09:34:00;97242.97;;;12.45;73.23
59194;BME280;44967;48.598;15.650;2023-04-24T09:36:32;97238.34;;;12.49;73.46
59194;BME280;44967;48.598;15.650;2023-04-24T09:39:04;97255.78;;;12.53;72.93
59194;BME280;44967;48.598;15.650;2023-04-24T09:41:32;97253.75;;;12.58;73.17
59194;BME280;44967;48.598;15.650;2023-04-24T09:44:11;97256.22;;;12.61;73.05
59194;BME280;44967;48.598;15.650;2023-04-24T09:46:37;97258.63;;;12.65;73.10
59194;BME280;44967;48.598;15.650;2023-04-24T09:49:12;97262.81;;;12.69;73.09
59194;BME280;44967;48.598;15.650;2023-04-24T09:51:39;97250.94;;;12.76;72.50
59194;BME280;44967;48.598;15.650;2023-04-24T09:54:13;97260.09;;;12.71;73.45
59194;BME280;44967;48.598;15.650;2023-04-24T09:56:43;97265.28;;;12.88;74.26
59194;BME280;44967;48.598;15.650;2023-04-24T09:59:09;97266.09;;;12.90;74.25
59194;BME280;44967;48.598;15.650;2023-04-24T10:01:35;97260.53;;;13.10;74.31
59194;BME280;44967;48.598;15.650;2023-04-24T10:04:01;97263.22;;;13.09;75.58
59194;BME280;44967;48.598;15.650;2023-04-24T10:06:34;97269.59;;;13.06;73.12
59194;BME280;44967;48.598;15.650;2023-04-24T10:09:00;97262.47;;;13.38;73.74
59194;BME280;44967;48.598;15.650;2023-04-24T10:11:29;97261.34;;;13.42;71.55
59194;BME280;44967;48.598;15.650;2023-04-24T10:13:56;97264.25;;;13.38;70.48
59194;BME280;44967;48.598;15.650;2023-04-24T10:16:23;97266.19;;;13.50;71.44
59194;BME280;44967;48.598;15.650;2023-04-24T10:18:49;97272.31;;;13.66;71.87
59194;BME280;44967;48.598;15.650;2023-04-24T10:21:16;97263.75;;;13.61;71.73
59194;BME280;44967;48.598;15.650;2023-04-24T10:23:42;97265.88;;;13.70;70.68
59194;BME280;44967;48.598;15.650;2023-04-24T10:26:13;97277.75;;;13.49;70.36
59194;BME280;44967;48.598;15.650;2023-04-24T10:28:47;97273.63;;;13.13;67.51
59194;BME280;44967;48.598;15.650;2023-04-24T10:31:16;97272.59;;;13.16;70.88
59194;BME280;44967;48.598;15.650;2023-04-24T10:33:43;97281.81;;;13.25;69.74
59194;BME280;44967;48.598;15.650;2023-04-24T10:36:13;97279.28;;;13.23;70.18
59194;BME280;44967;48.598;15.650;2023-04-24T10:38:42;97278.56;;;13.19;68.96
59194;BME280;44967;48.598;15.650;2023-04-24T10:41:11;97283.72;;;13.23;68.72
59194;BME280;44967;48.598;15.650;2023-04-24T10:43:42;97283.09;;;13.02;70.16
59194;BME280;44967;48.598;15.650;2023-04-24T10:46:08;97285.78;;;13.17;70.56
59194;BME280;44967;48.598;15.650;2023-04-24T10:48:41;97275.63;;;13.40;69.69
59194;BME280;44967;48.598;15.650;2023-04-24T10:51:11;97274.75;;;13.39;69.66
59194;BME280;44967;48.598;15.650;2023-04-24T10:53:37;97277.50;;;13.53;68.21
59194;BME280;44967;48.598;15.650;2023-04-24T10:56:07;97284.47;;;13.70;70.18
59194;BME280;44967;48.598;15.650;2023-04-24T10:58:43;97271.66;;;13.62;69.11
59194;BME280;44967;48.598;15.650;2023-04-24T11:04:00;97275.00;;;13.80;68.15
59194;BME280;44967;48.598;15.650;2023-04-24T11:06:36;97270.81;;;13.76;66.46
59194;BME280;44967;48.598;15.650;2023-04-24T11:09:04;97272.34;;;13.80;67.75
59194;BME280;44967;48.598;15.650;2023-04-24T11:11:32;97278.50;;;13.81;67.51
59194;BME280;44967;48.598;15.650;2023-04-24T11:18:59;97286.59;;;13.93;68.01
59194;BME280;44967;48.598;15.650;2023-04-24T11:21:27;97287.19;;;13.98;67.87
59194;BME280;44967;48.598;15.650;2023-04-24T11:23:57;97289.00;;;14.12;69.61
59194;BME280;44967;48.598;15.650;2023-04-24T11:26:23;97284.88;;;14.36;68.02
59194;BME280;44967;48.598;15.650;2023-04-24T11:29:07;97282.03;;;14.39;67.28
59194;BME280;44967;48.598;15.650;2023-04-24T11:31:38;97285.34;;;14.43;65.94
59194;BME280;44967;48.598;15.650;2023-04-24T11:34:11;97282.22;;;14.36;66.48
59194;BME280;44967;48.598;15.650;2023-04-24T11:36:37;97283.03;;;14.23;65.71
59194;BME280;44967;48.598;15.650;2023-04-24T11:39:04;97279.09;;;14.44;65.38
59194;BME280;44967;48.598;15.650;2023-04-24T11:41:30;97279.66;;;14.35;64.71
59194;BME280;44967;48.598;15.650;2023-04-24T11:43:57;97280.16;;;14.41;64.70
59194;BME280;44967;48.598;15.650;2023-04-24T11:46:23;97282.72;;;14.57;66.47
59194;BME280;44967;48.598;15.650;2023-04-24T11:48:51;97278.34;;;14.42;63.85
59194;BME280;44967;48.598;15.650;2023-04-24T11:51:17;97279.66;;;14.63;65.40
59194;BME280;44967;48.598;15.650;2023-04-24T11:53:43;97281.66;;;14.45;64.71
59194;BME280;44967;48.598;15.650;2023-04-24T11:56:09;97285.38;;;14.57;64.71
59194;BME280;44967;48.598;15.650;2023-04-24T11:58:35;97290.84;;;14.68;66.12
59194;BME280;44967;48.598;15.650;2023-04-24T12:01:01;97290.03;;;14.53;65.42
59194;BME280;44967;48.598;15.650;2023-04-24T12:03:27;97280.22;;;14.54;65.01
59194;BME280;44967;48.598;15.650;2023-04-24T12:06:07;97287.81;;;14.60;67.99
59194;BME280;44967;48.598;15.650;2023-04-24T12:08:34;97284.69;;;14.68;65.99
59194;BME280;44967;48.598;15.650;2023-04-24T12:11:04;97280.22;;;14.54;65.16
59194;BME280;44967;48.598;15.650;2023-04-24T12:13:30;97278.13;;;14.59;68.91
59194;BME280;44967;48.598;15.650;2023-04-24T12:16:01;97273.84;;;14.71;69.26
59194;BME280;44967;48.598;15.650;2023-04-24T12:18:26;97276.78;;;14.66;69.63
59194;BME280;44967;48.598;15.650;2023-04-24T12:20:53;97266.75;;;14.57;68.85
59194;BME280;44967;48.598;15.650;2023-04-24T12:23:35;97278.31;;;14.70;69.62
59194;BME280;44967;48.598;15.650;2023-04-24T12:26:03;97279.44;;;14.66;69.48
59194;BME280;44967;48.598;15.650;2023-04-24T12:28:37;97276.63;;;14.69;69.40
59194;BME280;44967;48.598;15.650;2023-04-24T12:31:03;97266.50;;;14.88;67.53
59194;BME280;44967;48.598;15.650;2023-04-24T12:33:32;97268.19;;;14.89;68.70
59194;BME280;44967;48.598;15.650;2023-04-24T12:35:58;97267.88;;;14.81;67.12
59194;BME280;44967;48.598;15.650;2023-04-24T12:38:26;97261.03;;;14.77;66.91
59194;BME280;44967;48.598;15.650;2023-04-24T12:41:06;97260.25;;;14.75;66.65
59194;BME280;44967;48.598;15.650;2023-04-24T12:43:32;97264.81;;;14.87;68.74
59194;BME280;44967;48.598;15.650;2023-04-24T12:45:59;97275.00;;;14.67;69.52
59194;BME280;44967;48.598;15.650;2023-04-24T12:48:29;97280.22;;;14.26;70.16
59194;BME280;44967;48.598;15.650;2023-04-24T12:50:56;97269.53;;;14.11;73.39
59194;BME280;44967;48.598;15.650;2023-04-24T12:53:22;97264.78;;;14.02;75.31
59194;BME280;44967;48.598;15.650;2023-04-24T12:55:48;97262.66;;;13.79;72.90
59194;BME280;44967;48.598;15.650;2023-04-24T12:58:19;97264.63;;;14.05;74.40
59194;BME280;44967;48.598;15.650;2023-04-24T13:00:46;97255.25;;;14.42;74.01